Map

Track Data

SID SEASON NUMBER BASIN SUBBASIN NAME ISO_TIME NATURE LAT LON WMO_WIND WMO_PRES WMO_AGENCY TRACK_TYPE DIST2LAND LANDFALL IFLAG USA_AGENCY USA_ATCF_ID USA_LAT USA_LON USA_RECORD USA_STATUS USA_WIND USA_PRES USA_SSHS USA_R34_NE USA_R34_SE USA_R34_SW USA_R34_NW USA_R50_NE USA_R50_SE USA_R50_SW USA_R50_NW USA_R64_NE USA_R64_SE USA_R64_SW USA_R64_NW USA_POCI USA_ROCI USA_RMW USA_EYE TOKYO_LAT TOKYO_LON TOKYO_GRADE TOKYO_WIND TOKYO_PRES TOKYO_R50_DIR TOKYO_R50_LONG TOKYO_R50_SHORT TOKYO_R30_DIR TOKYO_R30_LONG TOKYO_R30_SHORT TOKYO_LAND CMA_LAT CMA_LON CMA_CAT CMA_WIND CMA_PRES HKO_LAT HKO_LON HKO_CAT HKO_WIND HKO_PRES NEWDELHI_LAT NEWDELHI_LON NEWDELHI_GRADE NEWDELHI_WIND NEWDELHI_PRES NEWDELHI_CI NEWDELHI_DP NEWDELHI_POCI REUNION_LAT REUNION_LON REUNION_TYPE REUNION_WIND REUNION_PRES REUNION_TNUM REUNION_CI REUNION_RMW REUNION_R34_NE REUNION_R34_SE REUNION_R34_SW REUNION_R34_NW REUNION_R50_NE REUNION_R50_SE REUNION_R50_SW REUNION_R50_NW REUNION_R64_NE REUNION_R64_SE REUNION_R64_SW REUNION_R64_NW BOM_LAT BOM_LON BOM_TYPE BOM_WIND BOM_PRES BOM_TNUM BOM_CI BOM_RMW BOM_R34_NE BOM_R34_SE BOM_R34_SW BOM_R34_NW BOM_R50_NE BOM_R50_SE BOM_R50_SW BOM_R50_NW BOM_R64_NE BOM_R64_SE BOM_R64_SW BOM_R64_NW BOM_ROCI BOM_POCI BOM_EYE BOM_POS_METHOD BOM_PRES_METHOD NADI_LAT NADI_LON NADI_CAT NADI_WIND NADI_PRES WELLINGTON_LAT WELLINGTON_LON WELLINGTON_WIND WELLINGTON_PRES DS824_LAT DS824_LON DS824_STAGE DS824_WIND DS824_PRES TD9636_LAT TD9636_LON TD9636_STAGE TD9636_WIND TD9636_PRES TD9635_LAT TD9635_LON TD9635_WIND TD9635_PRES TD9635_ROCI NEUMANN_LAT NEUMANN_LON NEUMANN_CLASS NEUMANN_WIND NEUMANN_PRES MLC_LAT MLC_LON MLC_CLASS MLC_WIND MLC_PRES USA_GUST BOM_GUST BOM_GUST_PER REUNION_GUST REUNION_GUST_PER USA_SEAHGT USA_SEARAD_NE USA_SEARAD_SE USA_SEARAD_SW USA_SEARAD_NW STORM_SPEED STORM_DIR
1985184N15258 1985 51 EP MM FEFA 1985-07-02 12:00:00 TS 14.8000 -102.200 25 hurdat_epa main 303 302 O_________O___ hurdat_epa EP061985 14.8000 -102.200 TD 25 -1 14.8000 -102.200 1 25 10 287
1985184N15258 1985 51 EP MM FEFA 1985-07-02 15:00:00 TS 14.9453 -102.696 main 318 309 P_________P___ EP061985 14.9476 -102.680 TD 27 -1 14.9382 -102.744 1 27 10 287
1985184N15258 1985 51 EP MM FEFA 1985-07-02 18:00:00 TS 15.0977 -103.223 30 hurdat_epa main 327 324 O_________P___ hurdat_epa EP061985 15.1000 -103.200 TD 30 -1 15.0907 -103.290 1 30 11 287
1985184N15258 1985 51 EP MM FEFA 1985-07-02 21:00:00 TS 15.2707 -103.799 main 327 324 P_________P___ EP061985 15.2700 -103.785 TD 32 -1 15.2728 -103.841 1 32 12 290
1985184N15258 1985 51 EP MM FEFA 1985-07-03 00:00:00 TS 15.5000 -104.400 35 hurdat_epa main 327 316 O_________O___ hurdat_epa EP061985 15.5000 -104.400 TS 35 0 15.5000 -104.400 2 35 13 295
1985184N15258 1985 51 EP MM FEFA 1985-07-03 03:00:00 TS 15.8113 -105.008 main 322 314 P_________P___ EP061985 15.8200 -105.022 TS 35 0 15.7851 -104.965 2 36 13 301
1985184N15258 1985 51 EP MM FEFA 1985-07-03 06:00:00 TS 16.1826 -105.579 35 hurdat_epa main 323 323 O_________P___ hurdat_epa EP061985 16.2000 -105.600 TS 35 0 16.1302 -105.517 2 37 13 306
1985184N15258 1985 51 EP MM FEFA 1985-07-03 09:00:00 TS 16.5612 -106.075 main 321 304 P_________P___ EP061985 16.5698 -106.088 TS 37 0 16.5352 -106.037 2 38 12 313
1985184N15258 1985 51 EP MM FEFA 1985-07-03 12:00:00 TS 17.0000 -106.500 40 hurdat_epa main 304 284 O_________O___ hurdat_epa EP061985 17.0000 -106.500 TS 40 0 17.0000 -106.500 2 40 12 322
1985184N15258 1985 51 EP MM FEFA 1985-07-03 15:00:00 TS 17.5293 -106.876 main 291 268 P_________P___ EP061985 17.5199 -106.873 TS 45 0 17.5574 -106.887 2 45 13 329
1985184N15258 1985 51 EP MM FEFA 1985-07-03 18:00:00 TS 18.1160 -107.204 50 hurdat_epa main 268 252 O_________P___ hurdat_epa EP061985 18.1000 -107.200 TS 50 0 18.1641 -107.218 2 50 14 334
1985184N15258 1985 51 EP MM FEFA 1985-07-03 21:00:00 TS 18.7327 -107.504 main 255 246 P_________P___ EP061985 18.7224 -107.500 TS 55 0 18.7638 -107.515 2 55 13 335
1985184N15258 1985 51 EP MM FEFA 1985-07-04 00:00:00 TS 19.3000 -107.800 60 hurdat_epa main 251 246 O_________O___ hurdat_epa EP061985 19.3000 -107.800 TS 60 0 19.3000 -107.800 2 60 12 329
1985184N15258 1985 51 EP MM FEFA 1985-07-04 03:00:00 TS 19.7456 -108.144 main 262 262 P_________P___ EP061985 19.7525 -108.158 TS 60 0 19.7250 -108.104 2 60 10 321
1985184N15258 1985 51 EP MM FEFA 1985-07-04 06:00:00 TS 20.0943 -108.475 60 hurdat_epa main 293 292 O_________P___ hurdat_epa EP061985 20.1000 -108.500 TS 60 0 20.0770 -108.401 2 60 8 319
1985184N15258 1985 51 EP MM FEFA 1985-07-04 09:00:00 TS 20.3819 -108.737 main 301 270 P_________P___ EP061985 20.3873 -108.750 TS 60 0 20.3656 -108.697 2 60 7 316
1985184N15258 1985 51 EP MM FEFA 1985-07-04 12:00:00 TS 20.6000 -109.000 60 hurdat_epa main 270 240 O_________O___ hurdat_epa EP061985 20.6000 -109.000 TS 60 0 20.6000 -109.000 2 60 7 305
1985184N15258 1985 51 EP MM FEFA 1985-07-04 15:00:00 TS 20.7759 -109.338 main 240 223 P_________P___ EP061985 20.7651 -109.343 TS 55 0 20.8084 -109.322 2 56 7 296
1985184N15258 1985 51 EP MM FEFA 1985-07-04 18:00:00 TS 20.9169 -109.688 50 hurdat_epa main 223 201 O_________P___ hurdat_epa EP061985 20.9000 -109.700 TS 50 0 20.9674 -109.651 2 52 7 295
1985184N15258 1985 51 EP MM FEFA 1985-07-04 21:00:00 TS 21.0662 -110.000 main 201 191 P_________P___ EP061985 21.0574 -110.008 TS 47 0 21.0927 -109.979 2 48 6 296
1985184N15258 1985 51 EP MM FEFA 1985-07-05 00:00:00 TS 21.2000 -110.300 45 hurdat_epa main 192 183 O_________O___ hurdat_epa EP061985 21.2000 -110.300 TS 45 0 21.2000 -110.300 2 45 6 293
1985184N15258 1985 51 EP MM FEFA 1985-07-05 03:00:00 TS 21.3092 -110.605 main 189 182 P_________P___ EP061985 21.3074 -110.600 TS 37 0 21.3143 -110.620 2 41 6 290
1985184N15258 1985 51 EP MM FEFA 1985-07-05 06:00:00 TS 21.4037 -110.908 30 hurdat_epa main 191 191 O_________P___ hurdat_epa EP061985 21.4000 -110.900 TD 30 -1 21.4149 -110.930 2 37 6 289
1985184N15258 1985 51 EP MM FEFA 1985-07-05 09:00:00 TS 21.5020 -111.212 main 199 199 P_________P___ EP061985 21.5000 -111.208 TD 30 -1 21.5081 -111.226 2 33 6 290
1985184N15258 1985 51 EP MM FEFA 1985-07-05 12:00:00 TS 21.6000 -111.500 30 hurdat_epa main 211 211 O_________O___ hurdat_epa EP061985 21.6000 -111.500 TD 30 -1 21.6000 -111.500 1 30 5 291
1985184N15258 1985 51 EP MM FEFA 1985-07-05 15:00:00 TS 21.6959 -111.764 main 228 228 P_________P___ EP061985 21.7000 -111.765 TD 27 -1 21.6836 -111.759 1 28 5 293
1985184N15258 1985 51 EP MM FEFA 1985-07-05 18:00:00 TS 21.7925 -111.999 25 hurdat_epa main 239 239 O_________P___ hurdat_epa EP061985 21.8000 -112.000 TD 25 -1 21.7698 -111.995 1 27 5 294
1985184N15258 1985 51 EP MM FEFA 1985-07-05 21:00:00 TS 21.8815 -112.208 main 252 252 P_________P___ EP061985 21.8849 -112.208 TD 25 -1 21.8712 -112.209 1 26 4 299
1985184N15258 1985 51 EP MM FEFA 1985-07-06 00:00:00 TS 22.0000 -112.400 25 hurdat_epa main 264 261 O_________O___ hurdat_epa EP061985 22.0000 -112.400 TD 25 -1 22.0000 -112.400 1 25 5 309
1985184N15258 1985 51 EP MM FEFA 1985-07-06 03:00:00 TS 22.1792 -112.609 main 261 254 P_________P___ EP061985 22.1850 -112.615 TD 25 -1 22.1616 -112.593 1 25 5 317
1985184N15258 1985 51 EP MM FEFA 1985-07-06 06:00:00 TS 22.3881 -112.790 25 hurdat_epa main 254 240 O_________P___ hurdat_epa EP061985 22.4000 -112.800 TD 25 -1 22.3522 -112.761 1 25 5 325
1985184N15258 1985 51 EP MM FEFA 1985-07-06 09:00:00 TS 22.5860 -112.917 main 240 225 P_________P___ EP061985 22.5925 -112.923 TD 25 -1 22.5667 -112.899 1 25 5 335
1985184N15258 1985 51 EP MM FEFA 1985-07-06 12:00:00 TS 22.8000 -113.000 25 hurdat_epa main 225 207 O_________O___ hurdat_epa EP061985 22.8000 -113.000 TD 25 -1 22.8000 -113.000 1 25 5 344
1985184N15258 1985 51 EP MM FEFA 1985-07-06 15:00:00 TS 23.0417 -113.056 main 213 186 P_________P___ EP061985 23.0400 -113.055 TD 22 -1 23.0466 -113.061 1 22 5 350
1985184N15258 1985 51 EP MM FEFA 1985-07-06 18:00:00 TS 23.3000 -113.100 20 hurdat_epa main 186 O_________O___ hurdat_epa EP061985 23.3000 -113.100 TD 20 -1 23.3000 -113.100 1 20 5 350

About IBTrACS Database

This database is a web-friendly format of International Best Track Archive for Climate Stewardship (IBTrACS), a global best track data archive curated by NOAA dating back to 1842.

Updated: 2021-10-08